Latest Weather Observations for Mandurah

IDW60901

Issued at 5:21 pm WST Tuesday 7 July 2015 (issued every 10 minutes, with the page automatically refreshed every 10 minutes)

About weather observations | Map of Perth area stations | Latest observations for Perth area | Other Formats
Station Details ID: 009977 Name: MANDURAH Lat: -32.52 Lon: 115.71 Height: 3.0 m
Data from the previous 72 hours. | See also: Recent months at Mandurah
Date/Time
WST
Tmp

°C
App
Tmp
°C
Dew
Point
°C
Rel
Hum
%
Delta-T

°C
Wind Press
QNH
hPa
Press
MSL
hPa
Rain
since
9 am
mm
Dir
 
Spd
km/h
Gust
km/h
Spd
kts
Gust
kts
07/05:00pm 17.1 16.1 15.6 91 0.9 SW 15 24 8 13 1017.5 1017.5 9.0
07/04:30pm 17.1 15.5 15.1 88 1.2 SW 17 28 9 15 1017.3 1017.3 9.0
07/04:00pm 18.4 16.5 14.3 77 2.4 WSW 17 24 9 13 1017.2 1017.2 8.6
07/03:30pm 18.8 17.2 13.9 73 2.8 W 15 19 8 10 1017.2 1017.2 8.6
07/03:00pm 18.7 16.2 13.6 72 2.9 W 19 26 10 14 1017.3 1017.3 8.6
07/02:30pm 18.6 16.4 14.3 76 2.5 W 19 26 10 14 1017.3 1017.3 8.6
07/02:00pm 17.5 18.0 17.5 100 0.0 W 11 22 6 12 1017.4 1017.4 8.6
07/01:30pm 17.0 18.6 17.0 100 0.0 NW 4 6 2 3 1017.6 1017.6 8.4
07/01:00pm 16.4 17.2 16.4 100 0.0 NW 7 11 4 6 1018.1 1018.1 8.0
07/12:30pm 17.5 18.2 16.2 92 0.8 NNW 7 9 4 5 1018.1 1018.1 7.2
07/12:00pm 17.1 18.1 16.3 95 0.5 N 6 6 3 3 1018.5 1018.5 7.2
07/11:30am 16.9 18.1 16.9 100 0.0 NNE 6 6 3 3 1018.7 1018.7 7.2
07/11:00am 17.1 18.2 17.1 100 0.0 NE 7 9 4 5 1018.9 1018.9 7.2
07/10:30am 16.2 16.9 16.2 100 0.0 ENE 7 11 4 6 1019.3 1019.3 7.2
07/10:00am 15.0 15.5 15.0 100 0.0 E 6 7 3 4 1019.6 1019.6 7.2
07/09:30am 14.6 14.9 14.6 100 0.0 ESE 6 9 3 5 1019.4 1019.4 4.2
07/09:00am 14.4 14.7 14.4 100 0.0 E 6 7 3 4 1019.4 1019.4 9.6
07/08:30am 14.4 14.1 14.4 100 0.0 ENE 9 15 5 8 1019.1 1019.1 7.2
07/08:00am 14.6 14.4 14.6 100 0.0 ENE 9 13 5 7 1019.0 1019.0 5.2
07/07:30am 14.7 14.9 14.7 100 0.0 E 7 9 4 5 1019.0 1019.0 4.4
07/07:00am 15.5 16.6 15.5 100 0.0 S 4 6 2 3 1018.8 1018.8 3.8
07/06:30am 15.5 17.3 15.5 100 0.0 CALM 0 2 0 1 1018.9 1018.9 3.6
07/06:00am 15.8 16.3 15.5 98 0.2 WSW 7 11 4 6 1018.6 1018.6 3.6
07/05:30am 16.7 16.1 13.4 81 1.9 W 9 22 5 12 1018.6 1018.6 3.2
07/05:00am 17.0 15.8 12.7 76 2.4 W 11 17 6 9 1018.3 1018.3 3.2
07/04:30am 17.0 16.4 12.3 74 2.6 WSW 7 9 4 5 1018.4 1018.4 3.2
07/04:00am 16.9 15.8 11.8 72 2.8 WSW 9 13 5 7 1018.6 1018.6 3.2
07/03:30am 17.4 14.8 10.8 65 3.5 WSW 15 24 8 13 1018.9 1018.9 3.2
07/03:00am 17.2 15.6 11.7 70 3.0 W 11 17 6 9 1019.1 1019.1 3.2
07/02:30am 16.9 16.1 11.6 71 2.9 W 7 11 4 6 1019.1 1019.1 3.2
07/02:00am 17.2 14.5 11.7 70 3.0 WNW 17 20 9 11 1019.4 1019.4 3.2
07/01:30am 16.3 14.8 10.6 69 3.0 W 9 15 5 8 1019.6 1019.6 3.2
07/01:00am 16.9 13.5 10.5 66 3.4 W 19 26 10 14 1019.8 1019.8 3.2
07/12:30am 17.1 13.5 10.7 66 3.4 W 20 28 11 15 1019.7 1019.7 3.2
07/12:00am 17.4 14.5 12.3 72 2.8 W 19 26 10 14 1019.9 1019.9 3.2
 
Date/Time
WST
Tmp

°C
App
Tmp
°C
Dew
Point
°C
Rel
Hum
%
Delta-T

°C
Wind Press
QNH
hPa
Press
MSL
hPa
Rain
since
9 am
mm
Dir
 
Spd
km/h
Gust
km/h
Spd
kts
Gust
kts
06/11:30pm 17.6 15.1 11.2 66 3.5 WNW 15 22 8 12 1019.9 1019.9 3.2
06/11:00pm 17.6 14.4 11.4 67 3.4 WNW 19 24 10 13 1020.0 1020.0 3.2
06/10:30pm 17.4 15.0 11.4 68 3.3 W 15 24 8 13 1020.0 1020.0 3.2
06/10:00pm 17.4 15.1 11.9 70 3.0 W 15 22 8 12 1020.1 1020.1 3.2
06/09:30pm 16.7 17.0 14.9 89 1.0 W 7 17 4 9 1020.2 1020.2 3.2
06/09:00pm 16.9 16.6 14.4 85 1.4 W 9 13 5 7 1020.3 1020.3 3.2
06/08:30pm 17.0 16.5 14.8 87 1.3 W 11 19 6 10 1020.4 1020.4 3.2
06/08:00pm 17.3 16.8 14.8 85 1.4 W 11 17 6 9 1020.5 1020.5 3.2
06/07:30pm 17.6 16.6 14.5 82 1.8 W 13 22 7 12 1020.4 1020.4 3.2
06/07:00pm 17.4 17.2 14.7 84 1.6 W 9 15 5 8 1020.3 1020.3 3.2
06/06:30pm 17.1 15.7 14.4 84 1.5 W 15 26 8 14 1020.1 1020.1 3.2
06/06:00pm 17.9 16.2 14.6 81 1.9 W 17 20 9 11 1019.9 1019.9 3.0
06/05:30pm 17.5 17.0 16.0 91 0.9 WNW 13 17 7 9 1019.8 1019.8 3.0
06/05:00pm 17.6 17.1 17.0 96 0.4 NW 15 22 8 12 1019.6 1019.6 3.0
06/04:30pm 17.0 16.0 16.5 97 0.3 WNW 17 24 9 13 1019.7 1019.7 3.0
06/04:00pm 17.5 16.7 17.0 97 0.3 WNW 17 22 9 12 1019.7 1019.7 3.0
06/03:30pm 17.1 17.1 17.1 100 0.0 NW 13 20 7 11 1019.5 1019.5 3.0
06/03:00pm 17.3 14.9 17.3 100 0.0 N 26 35 14 19 1019.4 1019.4 3.0
06/02:30pm 17.4 16.2 17.4 100 0.0 N 20 24 11 13 1019.4 1019.4 2.8
06/02:00pm 16.7 15.2 16.7 100 0.0 N 20 26 11 14 1019.4 1019.4 2.8
06/01:30pm 16.3 13.9 16.3 100 0.0 N 24 32 13 17 1019.8 1019.8 2.6
06/01:00pm 16.1 13.6 16.1 100 0.0 N 24 32 13 17 1020.0 1020.0 2.0
06/12:30pm 15.9 12.9 15.9 100 0.0 N 26 32 14 17 1020.5 1020.5 0.4
06/12:00pm 15.8 12.4 15.8 100 0.0 N 28 33 15 18 1020.9 1020.9 0.0
06/11:30am 15.8 12.8 15.8 100 0.0 N 26 33 14 18 1021.3 1021.3 0.0
06/11:00am 16.5 13.7 14.3 87 1.3 N 22 30 12 16 1021.6 1021.6 0.0
06/10:30am 16.1 12.9 13.2 83 1.6 N 22 28 12 15 1021.8 1021.8 0.0
06/10:00am 15.4 12.4 13.6 89 1.0 NNE 22 24 12 13 1021.9 1021.9 0.0
06/09:30am 14.9 12.3 13.3 90 0.9 NNE 19 24 10 13 1021.7 1021.7 0.0
06/09:00am 14.6 11.8 13.3 92 0.7 NNE 20 28 11 15 1021.6 1021.6 0.2
06/08:30am 14.3 11.5 13.3 94 0.6 NNE 20 26 11 14 1021.6 1021.6 0.2
06/08:00am 13.9 11.8 13.6 98 0.2 NNE 17 24 9 13 1021.2 1021.2 0.2
06/07:30am 13.7 11.6 13.7 100 0.0 NNE 17 24 9 13 1021.1 1021.1 0.2
06/07:00am 13.5 11.4 13.5 100 0.0 NNE 17 20 9 11 1021.0 1021.0 0.2
06/06:30am 13.6 12.3 13.6 100 0.0 NNE 13 19 7 10 1020.9 1020.9 0.2
06/06:00am 13.6 11.9 13.6 100 0.0 NNE 15 17 8 9 1020.6 1020.6 0.2
06/05:30am 13.6 12.3 13.6 100 0.0 NNE 13 17 7 9 1020.6 1020.6 0.0
06/05:00am 13.6 12.3 13.6 100 0.0 NNE 13 17 7 9 1020.6 1020.6 0.0
06/04:30am 13.4 12.8 13.4 100 0.0 NE 9 15 5 8 1020.7 1020.7 0.0
06/04:00am 13.4 12.8 13.4 100 0.0 NE 9 13 5 7 1020.6 1020.6 0.0
06/03:30am 13.4 12.8 13.4 100 0.0 NE 9 13 5 7 1020.6 1020.6 0.0
06/03:00am 13.6 13.0 13.6 100 0.0 NE 9 11 5 6 1020.8 1020.8 0.0
06/02:30am 13.9 13.4 13.9 100 0.0 NE 9 13 5 7 1020.9 1020.9 0.0
06/02:00am 14.3 13.6 14.3 100 0.0 NNE 11 15 6 8 1021.0 1021.0 0.0
06/01:30am 14.4 13.7 14.4 100 0.0 NE 11 15 6 8 1021.0 1021.0 0.0
06/01:00am 14.4 13.7 14.4 100 0.0 NE 11 13 6 7 1021.1 1021.1 0.0
06/12:30am 14.5 13.9 14.5 100 0.0 NE 11 13 6 7 1021.3 1021.3 0.0
06/12:00am 14.3 14.3 14.3 100 0.0 NE 7 11 4 6 1021.3 1021.3 0.0
 
Date/Time
WST
Tmp

°C
App
Tmp
°C
Dew
Point
°C
Rel
Hum
%
Delta-T

°C
Wind Press
QNH
hPa
Press
MSL
hPa
Rain
since
9 am
mm
Dir
 
Spd
km/h
Gust
km/h
Spd
kts
Gust
kts
05/11:30pm 14.1 14.6 14.1 100 0.0 NE 4 6 2 3 1021.4 1021.4 0.0
05/11:00pm 15.0 14.9 15.0 100 0.0 NE 9 11 5 6 1021.5 1021.5 0.0
05/10:30pm 14.3 14.9 14.3 100 0.0 WSW 4 6 2 3 1021.7 1021.7 0.0
05/10:00pm 14.3 14.9 14.3 100 0.0 WSW 4 6 2 3 1021.7 1021.7 0.0
05/09:30pm 14.0 14.4 13.8 99 0.1 WSW 4 4 2 2 1021.8 1021.8 0.0
05/09:00pm 13.9 15.1 13.7 99 0.1 CALM 0 2 0 1 1021.7 1021.7 0.0
05/08:30pm 14.3 15.5 13.8 97 0.3 CALM 0 0 0 0 1021.8 1021.8 0.0
05/08:00pm 14.6 15.4 13.6 94 0.6 WSW 2 2 1 1 1021.8 1021.8 0.0
05/07:30pm 15.1 15.7 13.1 88 1.1 WSW 2 2 1 1 1021.6 1021.6 0.0
05/07:00pm 15.9 16.5 13.2 84 1.5 WSW 2 4 1 2 1021.5 1021.5 0.0
05/06:30pm 16.5 16.4 13.4 82 1.7 WSW 6 7 3 4 1021.3 1021.3 0.0
05/06:00pm 16.6 17.3 13.5 82 1.7 W 2 4 1 2 1020.8 1020.8 0.0
05/05:30pm 16.9 16.8 13.4 80 2.0 W 6 7 3 4 1020.8 1020.8 0.0
05/05:00pm 17.0 16.6 13.1 78 2.2 W 7 9 4 5 1020.7 1020.7 0.0
05/04:30pm 17.1 16.8 13.2 78 2.2 WNW 7 9 4 5 1020.6 1020.6 0.0
05/04:00pm 17.4 17.2 13.5 78 2.2 NNW 7 9 4 5 1020.5 1020.5 0.0
05/03:30pm 17.4 16.9 12.1 71 2.9 NW 6 7 3 4 1020.3 1020.3 0.0
05/03:00pm 18.3 18.0 13.2 72 2.9 NW 7 9 4 5 1020.3 1020.3 0.0
05/02:30pm 18.4 18.1 11.5 64 3.8 S 4 6 2 3 1020.1 1020.1 0.0
05/02:00pm 18.1 17.6 12.1 68 3.3 SE 6 9 3 5 1020.3 1020.3 0.0
05/01:30pm 17.9 17.6 12.8 72 2.8 SSE 6 9 3 5 1020.6 1020.6 0.0
05/01:00pm 16.7 16.4 13.2 80 2.0 SSE 7 11 4 6 1020.8 1020.8 0.0
05/12:30pm 16.8 16.3 13.9 83 1.6 SSE 9 15 5 8 1021.1 1021.1 0.0
05/12:00pm 17.1 16.5 13.6 80 2.0 ESE 9 13 5 7 1021.5 1021.5 0.0
05/11:30am 16.4 16.0 14.1 86 1.3 ESE 9 13 5 7 1021.8 1021.8 0.0
05/11:00am 16.4 16.7 14.4 88 1.1 ESE 6 11 3 6 1022.0 1022.0 0.0
05/10:30am 16.4 16.8 15.4 94 0.6 ESE 7 11 4 6 1022.1 1022.1 0.0
05/10:00am 15.8 14.9 14.8 94 0.6 SE 13 20 7 11 1021.9 1021.9 0.0
05/09:30am 15.2 14.4 15.2 100 0.0 SE 13 20 7 11 1021.7 1021.7 0.0
05/09:00am 14.6 14.4 14.6 100 0.0 SSE 9 15 5 8 1021.7 1021.7 3.4
05/08:30am 14.4 14.1 14.4 100 0.0 SE 9 15 5 8 1021.7 1021.7 3.4
05/08:00am 14.3 14.0 14.3 100 0.0 SSE 9 13 5 7 1021.4 1021.4 3.4
05/07:30am 14.4 13.7 14.4 100 0.0 SSE 11 17 6 9 1021.1 1021.1 3.4
05/07:00am 14.8 13.9 14.8 100 0.0 S 13 19 7 10 1020.9 1020.9 3.2
05/06:30am 15.5 16.0 15.5 100 0.0 S 7 11 4 6 1020.6 1020.6 1.8
05/06:00am 16.8 15.2 15.0 89 1.0 NW 17 20 9 11 1020.2 1020.2 1.6
05/05:30am 16.4 14.8 14.9 91 0.9 NW 17 20 9 11 1020.0 1020.0 1.6
05/05:00am 16.5 15.2 14.9 90 0.9 NW 15 19 8 10 1020.2 1020.2 1.6
05/04:30am 15.8 16.3 14.0 89 1.0 W 4 6 2 3 1020.3 1020.3 1.6
05/04:00am 15.8 15.8 13.5 86 1.3 W 6 7 3 4 1020.4 1020.4 1.6
05/03:30am 15.9 15.4 13.9 88 1.1 SW 9 15 5 8 1020.5 1020.5 1.6
05/03:00am 15.3 15.6 15.1 99 0.1 SSW 7 11 4 6 1020.6 1020.6 1.6
05/02:30am 14.7 15.2 14.1 96 0.3 ESE 4 7 2 4 1020.7 1020.7 1.6
05/02:00am 15.2 14.7 12.2 82 1.6 SSE 6 7 3 4 1020.7 1020.7 1.6
05/01:30am 15.8 14.5 11.4 75 2.4 WSW 9 13 5 7 1020.7 1020.7 1.6
05/01:00am 15.9 14.3 11.7 76 2.3 WSW 11 17 6 9 1020.8 1020.8 1.6
05/12:30am 15.9 14.8 13.2 84 1.5 WSW 11 15 6 8 1021.1 1021.1 1.6
05/12:00am 15.2 15.8 15.2 100 0.0 WSW 6 7 3 4 1021.3 1021.3 1.6
 
Date/Time
WST
Tmp

°C
App
Tmp
°C
Dew
Point
°C
Rel
Hum
%
Delta-T

°C
Wind Press
QNH
hPa
Press
MSL
hPa
Rain
since
9 am
mm
Dir
 
Spd
km/h
Gust
km/h
Spd
kts
Gust
kts
04/11:30pm 15.6 16.7 15.6 100 0.0 WSW 4 4 2 2 1021.2 1021.2 1.6
04/11:00pm 16.1 18.1 16.1 100 0.0 CALM 0 2 0 1 1021.3 1021.3 1.6
04/10:30pm 16.1 18.1 16.1 100 0.0 CALM 0 0 0 0 1021.3 1021.3 1.6
04/10:00pm 16.2 17.9 16.2 100 0.0 WSW 2 4 1 2 1021.3 1021.3 1.6
04/09:30pm 16.0 17.6 16.0 100 0.0 WSW 2 7 1 4 1021.5 1021.5 1.6
04/09:00pm 16.0 17.2 16.0 100 0.0 WSW 4 4 2 2 1021.4 1021.4 1.6
04/08:30pm 15.9 17.5 15.9 100 0.0 WSW 2 6 1 3 1021.4 1021.4 1.4
04/08:00pm 16.1 15.7 16.1 100 0.0 WSW 13 19 7 10 1021.4 1021.4 1.2
04/07:30pm 16.3 17.4 15.5 95 0.5 WSW 4 6 2 3 1021.2 1021.2 0.6
04/07:00pm 16.1 16.6 15.1 94 0.6 WSW 6 7 3 4 1021.1 1021.1 0.6
04/06:30pm 16.4 16.7 15.1 92 0.8 WSW 7 13 4 7 1021.0 1021.0 0.6
04/06:00pm 17.4 16.9 13.7 79 2.1 NW 9 11 5 6 1020.7 1020.7 0.0
04/05:30pm 17.4 16.8 13.5 78 2.2 WNW 9 15 5 8 1020.7 1020.7 0.0

Latest Capital City Observations: Canberra | Sydney | Melbourne | Brisbane | Adelaide | Perth | Hobart | Darwin

Other Formats:

Comma delimited format used in spreadsheet applications
http://www.bom.gov.au/fwo/IDW60901/IDW60901.94605.axf

JavaScript Object Notation format (JSON) in row-major order
http://www.bom.gov.au/fwo/IDW60901/IDW60901.94605.json